Time;durP1;ratioP1;P1;durP2;ratioP2;P2;SDS_P1;SDS_P2;PMS_P1;PMS_P2;Temp;Humidity;BMP_temperature;BMP_pressure;BME280_temperature;BME280_humidity;BME280_pressure;Samples;Min_cycle;Max_cycle;Signal;HPM_P1;HPM_P2
2023/05/06 00:00:38;;;;;;;;;;;;;;;13.42;88.28;101745.94;20698664;28;20316;-55
2023/05/06 00:10:59;;;;;;;;;;;;;;;13.35;93.15;101754.81;20700344;28;19984;-56
2023/05/06 00:21:21;;;;;;;;;;;;;;;13.23;89.45;101749.91;20694313;28;19926;-54
2023/05/06 00:31:42;;;;;;;;;;;;;;;13.16;89.62;101758.75;20705295;28;19925;-56
2023/05/06 00:42:03;;;;;;;;;;;;;;;13.09;86.40;101751.13;20698610;28;20316;-54
2023/05/06 00:52:25;;;;;;;;;;;;;;;13.06;88.55;101750.34;20698954;28;19926;-55
2023/05/06 01:02:46;;;;;;;;;;;;;;;12.86;88.93;101747.34;20696099;28;19940;-57
2023/05/06 01:13:08;;;;;;;;;;;;;;;12.86;89.52;101755.16;20693707;28;19976;-55
2023/05/06 01:23:48;;;;;;;;;;;;;;;12.82;88.91;101749.19;20707607;28;19972;-55
2023/05/06 01:34:16;;;;;;;;;;;;;;;12.73;88.43;101749.41;20700055;28;19930;-55
2023/05/06 01:44:38;;;;;;;;;;;;;;;12.58;88.11;101744.56;20704342;28;19929;-56
2023/05/06 01:54:59;;;;;;;;;;;;;;;12.49;91.40;101752.56;20680697;28;19952;-55
2023/05/06 02:05:21;;;;;;;;;;;;;;;12.44;92.41;101770.00;20690262;28;20019;-54
2023/05/06 02:15:42;;;;;;;;;;;;;;;12.48;92.38;101768.19;20702203;28;19975;-54
2023/05/06 02:26:04;;;;;;;;;;;;;;;12.42;91.47;101758.78;20698567;28;19926;-55
2023/05/06 02:36:26;;;;;;;;;;;;;;;12.38;91.23;101779.69;20697013;28;19951;-56
2023/05/06 02:46:47;;;;;;;;;;;;;;;12.28;89.83;101775.56;20689226;28;20713;-55
2023/05/06 02:57:09;;;;;;;;;;;;;;;12.22;89.96;101784.34;20692715;28;19972;-56
2023/05/06 03:07:30;;;;;;;;;;;;;;;12.17;91.98;101772.34;20688109;28;19925;-56
2023/05/06 03:17:52;;;;;;;;;;;;;;;12.11;94.50;101768.13;20707898;28;20009;-56
2023/05/06 03:28:13;;;;;;;;;;;;;;;12.08;90.78;101773.41;20711111;28;20297;-54
2023/05/06 03:38:34;;;;;;;;;;;;;;;11.95;91.20;101782.31;20715612;28;19976;-54
2023/05/06 03:48:57;;;;;;;;;;;;;;;11.90;92.01;101781.56;20715996;28;19976;-56
2023/05/06 03:59:18;;;;;;;;;;;;;;;11.91;91.81;101791.03;20706746;28;19925;-55
2023/05/06 04:09:39;;;;;;;;;;;;;;;11.90;93.17;101781.56;20695786;28;19988;-54
2023/05/06 04:20:10;;;;;;;;;;;;;;;11.83;94.86;101785.16;20706729;28;20293;-54
2023/05/06 04:30:31;;;;;;;;;;;;;;;11.84;95.72;101784.28;20710604;28;19930;-55
2023/05/06 04:40:52;;;;;;;;;;;;;;;11.78;95.57;101792.16;20702859;28;20092;-55
2023/05/06 04:51:14;;;;;;;;;;;;;;;11.78;94.75;101785.25;20704863;28;19925;-53
2023/05/06 05:01:35;;;;;;;;;;;;;;;11.81;93.77;101792.13;20706496;28;19934;-54
2023/05/06 05:11:57;;;;;;;;;;;;;;;11.96;95.32;101800.44;20696837;28;20522;-55
2023/05/06 05:22:18;;;;;;;;;;;;;;;12.01;95.94;101813.34;20693984;28;20388;-55
2023/05/06 05:32:39;;;;;;;;;;;;;;;12.05;96.57;101835.72;20701831;28;19929;-56
2023/05/06 05:43:01;;;;;;;;;;;;;;;12.00;94.88;101842.72;20711309;28;19926;-55
2023/05/06 05:53:23;;;;;;;;;;;;;;;11.95;96.62;101865.31;20704340;28;20389;-56
2023/05/06 06:03:44;;;;;;;;;;;;;;;11.93;95.94;101867.94;20691076;28;19926;-56
2023/05/06 06:14:06;;;;;;;;;;;;;;;11.94;96.15;101874.84;20707003;28;20065;-56
2023/05/06 06:24:27;;;;;;;;;;;;;;;12.03;96.08;101876.41;20708835;28;19926;-56
2023/05/06 06:34:49;;;;;;;;;;;;;;;12.10;95.41;101880.59;20692166;28;20549;-54
2023/05/06 06:45:12;;;;;;;;;;;;;;;12.26;96.98;101887.19;20709606;28;19964;-56
2023/05/06 06:55:33;;;;;;;;;;;;;;;12.35;92.78;101897.38;20711664;28;19929;-56
2023/05/06 07:05:55;;;;;;;;;;;;;;;12.49;94.32;101894.53;20718713;28;19980;-56
2023/05/06 07:16:16;;;;;;;;;;;;;;;12.62;96.59;101902.00;20722036;28;20412;-56
2023/05/06 07:26:38;;;;;;;;;;;;;;;12.77;94.62;101896.50;20715921;28;19930;-56
2023/05/06 07:37:00;;;;;;;;;;;;;;;13.03;92.77;101898.53;20707363;28;20535;-56
2023/05/06 07:47:31;;;;;;;;;;;;;;;13.34;90.38;101909.06;20711921;28;19960;-56
2023/05/06 07:57:52;;;;;;;;;;;;;;;13.53;90.24;101910.34;20718990;28;20278;-56
2023/05/06 08:08:14;;;;;;;;;;;;;;;13.60;92.47;101919.69;20692801;28;19964;-55
2023/05/06 08:18:35;;;;;;;;;;;;;;;13.70;92.65;101927.22;20694074;28;19933;-55
2023/05/06 08:28:58;;;;;;;;;;;;;;;13.84;90.01;101952.91;20714995;28;19992;-54
2023/05/06 08:39:19;;;;;;;;;;;;;;;14.13;91.35;101955.59;20717331;28;19926;-55
2023/05/06 08:49:41;;;;;;;;;;;;;;;14.23;90.57;101954.44;20691798;28;19926;-54
2023/05/06 09:00:03;;;;;;;;;;;;;;;14.23;90.13;101962.25;20697186;28;19926;-54
2023/05/06 09:10:30;;;;;;;;;;;;;;;14.24;87.73;101963.13;20699128;28;19930;-53
2023/05/06 09:20:51;;;;;;;;;;;;;;;14.39;87.13;101957.53;20703950;28;19929;-55
2023/05/06 09:31:13;;;;;;;;;;;;;;;14.62;88.76;101942.97;20713823;28;19929;-55
2023/05/06 09:41:35;;;;;;;;;;;;;;;14.68;87.26;101940.19;20693730;28;19953;-56
2023/05/06 09:51:57;;;;;;;;;;;;;;;14.93;88.34;101951.59;20708235;28;20554;-54
2023/05/06 10:02:19;;;;;;;;;;;;;;;15.14;85.79;101940.50;20705310;28;19929;-56
2023/05/06 10:12:40;;;;;;;;;;;;;;;15.27;85.28;101924.50;20704349;28;19932;-54
2023/05/06 10:23:06;;;;;;;;;;;;;;;15.43;89.92;101931.81;20697793;28;19983;-55
2023/05/06 10:33:28;;;;;;;;;;;;;;;15.86;84.56;101915.56;20687220;28;19925;-55
2023/05/06 10:43:55;;;;;;;;;;;;;;;16.45;79.02;101906.47;20680442;28;19937;-56
2023/05/06 10:54:17;;;;;;;;;;;;;;;16.45;79.29;101906.47;20698068;28;19999;-55
2023/05/06 11:04:38;;;;;;;;;;;;;;;16.54;83.17;101910.50;20698693;28;19929;-56
2023/05/06 11:15:17;;;;;;;;;;;;;;;17.01;77.59;101907.78;20686183;28;19933;-55
2023/05/06 11:25:40;;;;;;;;;;;;;;;17.14;75.80;101902.09;20702775;28;19929;-55
2023/05/06 11:36:02;;;;;;;;;;;;;;;17.85;76.60;101897.38;20697316;28;20288;-56
2023/05/06 11:46:28;;;;;;;;;;;;;;;18.31;75.48;101902.31;20703422;28;19932;-56
2023/05/06 11:56:50;;;;;;;;;;;;;;;18.30;74.02;101899.75;20713319;28;19955;-56
2023/05/06 12:07:13;;;;;;;;;;;;;;;17.74;76.35;101895.22;20701676;28;19980;-56
2023/05/06 12:17:34;;;;;;;;;;;;;;;17.60;76.25;101894.94;20714690;28;19937;-55
2023/05/06 12:27:57;;;;;;;;;;;;;;;17.49;77.01;101904.16;20697812;28;19934;-57
2023/05/06 12:38:18;;;;;;;;;;;;;;;17.43;77.74;101899.16;20702232;28;19926;-55
2023/05/06 12:48:40;;;;;;;;;;;;;;;17.23;76.89;101906.97;20716339;28;19930;-56
2023/05/06 12:59:02;;;;;;;;;;;;;;;17.24;77.98;101901.66;20697771;28;19952;-56
2023/05/06 13:09:23;;;;;;;;;;;;;;;17.55;77.42;101914.38;20693515;28;19933;-56
2023/05/06 13:19:45;;;;;;;;;;;;;;;17.70;76.94;101895.41;20704038;28;19977;-56
2023/05/06 13:30:07;;;;;;;;;;;;;;;17.87;76.17;101885.06;20710465;28;19971;-57
2023/05/06 13:40:29;;;;;;;;;;;;;;;17.99;74.25;101876.66;20712590;28;20012;-55
2023/05/06 13:50:50;;;;;;;;;;;;;;;17.98;72.04;101880.22;20695745;28;19938;-55
2023/05/06 14:01:12;;;;;;;;;;;;;;;18.05;72.90;101865.94;20703443;28;19929;-57
2023/05/06 14:11:33;;;;;;;;;;;;;;;18.08;73.57;101863.16;20698178;28;19976;-57
2023/05/06 14:21:55;;;;;;;;;;;;;;;17.91;74.81;101857.81;20691421;28;19929;-56
2023/05/06 14:32:17;;;;;;;;;;;;;;;18.00;74.92;101849.56;20699219;28;19926;-56
2023/05/06 14:42:38;;;;;;;;;;;;;;;18.12;73.75;101849.00;20692606;28;20004;-57
2023/05/06 14:53:00;;;;;;;;;;;;;;;18.17;73.53;101849.66;20687451;28;19987;-57
2023/05/06 15:03:24;;;;;;;;;;;;;;;18.26;73.56;101861.50;20701780;28;19971;-57
2023/05/06 15:13:45;;;;;;;;;;;;;;;18.24;73.23;101864.16;20709406;28;19929;-55
2023/05/06 15:24:07;;;;;;;;;;;;;;;18.21;73.59;101861.69;20725044;28;20011;-57
2023/05/06 15:34:29;;;;;;;;;;;;;;;18.00;73.42;101862.66;20717221;28;20443;-56
2023/05/06 15:44:50;;;;;;;;;;;;;;;17.85;74.24;101871.19;20704193;28;19929;-55
2023/05/06 15:55:12;;;;;;;;;;;;;;;17.72;74.14;101880.50;20701439;28;19929;-55
2023/05/06 16:05:34;;;;;;;;;;;;;;;17.67;75.29;101879.84;20714911;28;19926;-56
2023/05/06 16:15:55;;;;;;;;;;;;;;;17.64;74.72;101877.34;20710209;28;19931;-55
2023/05/06 16:26:17;;;;;;;;;;;;;;;17.59;74.08;101876.69;20700364;28;19925;-55
2023/05/06 16:36:39;;;;;;;;;;;;;;;17.60;74.90;101875.78;20712214;28;19926;-56
2023/05/06 16:47:00;;;;;;;;;;;;;;;17.47;74.97;101874.56;20689664;28;20270;-56
2023/05/06 16:57:22;;;;;;;;;;;;;;;17.34;74.57;101873.34;20687834;28;19933;-54
2023/05/06 17:07:44;;;;;;;;;;;;;;;17.24;75.45;101888.56;20700313;28;20063;-56
2023/05/06 17:18:05;;;;;;;;;;;;;;;17.08;76.16;101882.25;20693007;28;19942;-55
2023/05/06 17:28:27;;;;;;;;;;;;;;;16.92;75.61;101889.03;20694709;28;19926;-56
2023/05/06 17:38:51;;;;;;;;;;;;;;;16.82;75.32;101890.28;20709145;28;20340;-56
2023/05/06 17:49:14;;;;;;;;;;;;;;;16.60;76.78;101903.31;20700302;28;20322;-57
2023/05/06 17:59:36;;;;;;;;;;;;;;;16.32;76.98;101909.56;20696927;28;19933;-58
2023/05/06 18:09:57;;;;;;;;;;;;;;;16.19;76.69;101913.56;20703831;28;20388;-56
2023/05/06 18:20:19;;;;;;;;;;;;;;;16.10;77.38;101925.16;20701906;28;19934;-56
2023/05/06 18:30:40;;;;;;;;;;;;;;;15.89;76.58;101911.09;20691901;28;19976;-55
2023/05/06 18:41:02;;;;;;;;;;;;;;;15.72;77.12;101936.06;20682989;28;19999;-56
2023/05/06 18:51:23;;;;;;;;;;;;;;;15.52;79.42;101941.09;20713863;28;19936;-56
2023/05/06 19:01:45;;;;;;;;;;;;;;;15.40;78.17;101933.63;20714840;28;20415;-56
2023/05/06 19:12:06;;;;;;;;;;;;;;;15.16;80.12;101963.09;20712183;28;19930;-56
2023/05/06 19:22:28;;;;;;;;;;;;;;;15.05;81.48;101977.28;20704058;28;19980;-56
2023/05/06 19:32:50;;;;;;;;;;;;;;;14.84;79.51;101988.34;20705058;28;19929;-55
2023/05/06 19:43:11;;;;;;;;;;;;;;;14.71;79.35;102001.75;20702713;28;19945;-56
2023/05/06 19:53:33;;;;;;;;;;;;;;;14.45;78.22;101994.66;20716087;28;19984;-55
2023/05/06 20:03:54;;;;;;;;;;;;;;;14.29;78.69;101993.38;20700974;28;19925;-56
2023/05/06 20:14:16;;;;;;;;;;;;;;;14.08;79.51;101996.53;20714174;28;19988;-56
2023/05/06 20:24:39;;;;;;;;;;;;;;;13.83;80.43;102004.06;20705225;28;20015;-55
2023/05/06 20:35:00;;;;;;;;;;;;;;;13.65;82.19;101998.47;20697374;28;20065;-55
2023/05/06 20:45:22;;;;;;;;;;;;;;;13.54;81.15;102011.72;20710848;28;20563;-55
2023/05/06 20:55:43;;;;;;;;;;;;;;;13.51;81.75;102001.41;20705680;28;20392;-56
2023/05/06 21:06:05;;;;;;;;;;;;;;;13.40;81.46;102015.53;20697854;28;19930;-56
2023/05/06 21:16:26;;;;;;;;;;;;;;;13.35;81.02;102019.97;20696601;28;19973;-56
2023/05/06 21:26:48;;;;;;;;;;;;;;;13.37;81.48;102013.00;20702735;28;20348;-56
2023/05/06 21:37:10;;;;;;;;;;;;;;;13.35;81.69;102019.97;20703509;28;19952;-55
2023/05/06 21:47:31;;;;;;;;;;;;;;;13.38;82.22;102014.72;20696245;28;20590;-55
2023/05/06 21:57:52;;;;;;;;;;;;;;;13.39;81.93;102019.00;20705150;28;19933;-55
2023/05/06 22:08:14;;;;;;;;;;;;;;;13.42;82.17;102013.75;20710011;28;19991;-55
2023/05/06 22:18:40;;;;;;;;;;;;;;;13.47;81.43;102017.09;20701903;28;19926;-56
2023/05/06 22:29:02;;;;;;;;;;;;;;;13.35;80.90;102015.63;20701932;28;19965;-55
2023/05/06 22:39:23;;;;;;;;;;;;;;;13.29;81.13;102020.09;20701798;28;20820;-56
2023/05/06 22:49:45;;;;;;;;;;;;;;;13.19;81.83;102027.25;20695352;28;19991;-56
2023/05/06 23:00:07;;;;;;;;;;;;;;;13.16;79.80;102023.84;20686994;28;19929;-56
2023/05/06 23:10:29;;;;;;;;;;;;;;;13.08;81.10;102030.06;20703018;28;20528;-56
2023/05/06 23:20:50;;;;;;;;;;;;;;;13.06;80.51;102024.06;20688487;28;19929;-56
2023/05/06 23:31:11;;;;;;;;;;;;;;;13.01;80.46;102028.47;20705936;28;19934;-55
2023/05/06 23:41:33;;;;;;;;;;;;;;;12.92;81.51;102031.25;20698789;28;19983;-54
2023/05/06 23:51:54;;;;;;;;;;;;;;;12.93;80.71;102029.50;20699004;28;19945;-55
